sensor_id;sensor_type;location;lat;lon;timestamp;pressure;altitude;pressure_sealevel;temperature
34125;BMP280;20110;53.120;5.786;2022-11-20T00:03:37;101429.38;;;4.80
34125;BMP280;20110;53.120;5.786;2022-11-20T00:06:10;101443.34;;;4.95
34125;BMP280;20110;53.120;5.786;2022-11-20T00:08:37;101438.16;;;5.01
34125;BMP280;20110;53.120;5.786;2022-11-20T00:11:11;101412.75;;;4.98
34125;BMP280;20110;53.120;5.786;2022-11-20T00:13:38;101425.84;;;5.07
34125;BMP280;20110;53.120;5.786;2022-11-20T00:16:09;101269.28;;;3.92
34125;BMP280;20110;53.120;5.786;2022-11-20T00:18:36;101420.53;;;4.92
34125;BMP280;20110;53.120;5.786;2022-11-20T00:21:10;101417.97;;;4.83
34125;BMP280;20110;53.120;5.786;2022-11-20T00:23:36;101420.34;;;4.72
34125;BMP280;20110;53.120;5.786;2022-11-20T00:26:05;101420.31;;;4.57
34125;BMP280;20110;53.120;5.786;2022-11-20T00:28:31;101404.47;;;4.33
34125;BMP280;20110;53.120;5.786;2022-11-20T00:31:07;101418.34;;;4.43
34125;BMP280;20110;53.120;5.786;2022-11-20T00:33:34;101408.13;;;4.60
34125;BMP280;20110;53.120;5.786;2022-11-20T00:36:07;101414.34;;;4.71
34125;BMP280;20110;53.120;5.786;2022-11-20T00:38:34;101376.72;;;4.65
34125;BMP280;20110;53.120;5.786;2022-11-20T00:41:09;101379.34;;;4.65
34125;BMP280;20110;53.120;5.786;2022-11-20T00:43:36;101393.78;;;4.70
34125;BMP280;20110;53.120;5.786;2022-11-20T00:46:18;101401.06;;;4.51
34125;BMP280;20110;53.120;5.786;2022-11-20T00:48:45;101405.47;;;4.36
34125;BMP280;20110;53.120;5.786;2022-11-20T00:51:14;101379.19;;;4.03
34125;BMP280;20110;53.120;5.786;2022-11-20T00:53:41;101398.53;;;4.24
34125;BMP280;20110;53.120;5.786;2022-11-20T00:56:11;101390.72;;;4.38
34125;BMP280;20110;53.120;5.786;2022-11-20T00:58:40;101404.75;;;4.68
34125;BMP280;20110;53.120;5.786;2022-11-20T01:01:09;101410.16;;;4.89
34125;BMP280;20110;53.120;5.786;2022-11-20T01:03:39;101407.81;;;4.91
34125;BMP280;20110;53.120;5.786;2022-11-20T01:06:14;101405.91;;;4.91
34125;BMP280;20110;53.120;5.786;2022-11-20T01:08:41;101383.13;;;4.88
34125;BMP280;20110;53.120;5.786;2022-11-20T01:11:13;101395.72;;;5.08
34125;BMP280;20110;53.120;5.786;2022-11-20T01:13:40;101401.66;;;5.32
34125;BMP280;20110;53.120;5.786;2022-11-20T01:16:39;101391.03;;;5.42
34125;BMP280;20110;53.120;5.786;2022-11-20T01:19:09;101374.03;;;5.57
34125;BMP280;20110;53.120;5.786;2022-11-20T01:21:39;101388.84;;;5.84
34125;BMP280;20110;53.120;5.786;2022-11-20T01:24:08;101387.88;;;6.02
34125;BMP280;20110;53.120;5.786;2022-11-20T01:26:37;101384.53;;;6.16
34125;BMP280;20110;53.120;5.786;2022-11-20T01:29:05;101364.81;;;6.12
34125;BMP280;20110;53.120;5.786;2022-11-20T01:31:34;101382.16;;;6.18
34125;BMP280;20110;53.120;5.786;2022-11-20T01:34:04;101376.19;;;6.23
34125;BMP280;20110;53.120;5.786;2022-11-20T01:36:33;101372.84;;;6.23
34125;BMP280;20110;53.120;5.786;2022-11-20T01:39:06;101359.66;;;6.23
34125;BMP280;20110;53.120;5.786;2022-11-20T01:41:34;101373.53;;;6.38
34125;BMP280;20110;53.120;5.786;2022-11-20T01:47:38;101366.97;;;6.33
34125;BMP280;20110;53.120;5.786;2022-11-20T01:50:18;101370.09;;;6.32
34125;BMP280;20110;53.120;5.786;2022-11-20T01:52:59;101376.69;;;6.22
34125;BMP280;20110;53.120;5.786;2022-11-20T01:55:31;101366.44;;;6.09
34125;BMP280;20110;53.120;5.786;2022-11-20T01:57:58;101341.94;;;5.88
34125;BMP280;20110;53.120;5.786;2022-11-20T02:00:25;101323.34;;;5.77
34125;BMP280;20110;53.120;5.786;2022-11-20T02:02:59;101341.94;;;5.88
34125;BMP280;20110;53.120;5.786;2022-11-20T02:05:51;101358.38;;;5.98
34125;BMP280;20110;53.120;5.786;2022-11-20T02:08:21;101365.56;;;5.97
34125;BMP280;20110;53.120;5.786;2022-11-20T02:10:47;101346.75;;;5.90
34125;BMP280;20110;53.120;5.786;2022-11-20T02:13:13;101362.66;;;5.95
34125;BMP280;20110;53.120;5.786;2022-11-20T02:15:57;101353.69;;;5.87
34125;BMP280;20110;53.120;5.786;2022-11-20T02:18:24;101341.41;;;5.70
34125;BMP280;20110;53.120;5.786;2022-11-20T02:21:02;101355.00;;;5.62
34125;BMP280;20110;53.120;5.786;2022-11-20T02:23:57;101352.25;;;5.57
34125;BMP280;20110;53.120;5.786;2022-11-20T02:26:26;101321.47;;;5.33
34125;BMP280;20110;53.120;5.786;2022-11-20T02:28:53;101322.13;;;5.28
34125;BMP280;20110;53.120;5.786;2022-11-20T02:31:19;101331.38;;;5.39
34125;BMP280;20110;53.120;5.786;2022-11-20T02:33:45;101325.38;;;5.38
34125;BMP280;20110;53.120;5.786;2022-11-20T02:36:15;101330.75;;;5.44
34125;BMP280;20110;53.120;5.786;2022-11-20T02:38:42;101325.22;;;5.42
34125;BMP280;20110;53.120;5.786;2022-11-20T02:41:09;101345.91;;;5.63
34125;BMP280;20110;53.120;5.786;2022-11-20T02:43:34;101340.34;;;5.76
34125;BMP280;20110;53.120;5.786;2022-11-20T02:46:00;101339.50;;;5.85
34125;BMP280;20110;53.120;5.786;2022-11-20T02:48:26;101296.09;;;5.65
34125;BMP280;20110;53.120;5.786;2022-11-20T02:50:52;101331.56;;;5.99
34125;BMP280;20110;53.120;5.786;2022-11-20T02:53:17;101215.78;;;5.26
34125;BMP280;20110;53.120;5.786;2022-11-20T02:55:43;101306.66;;;6.01
34125;BMP280;20110;53.120;5.786;2022-11-20T02:58:09;101336.88;;;6.20
34125;BMP280;20110;53.120;5.786;2022-11-20T03:00:35;101326.56;;;6.22
34125;BMP280;20110;53.120;5.786;2022-11-20T03:03:03;101275.22;;;5.97
34125;BMP280;20110;53.120;5.786;2022-11-20T03:05:28;101318.00;;;6.27
34125;BMP280;20110;53.120;5.786;2022-11-20T03:07:54;101323.44;;;6.23
34125;BMP280;20110;53.120;5.786;2022-11-20T03:10:20;101303.91;;;6.10
34125;BMP280;20110;53.120;5.786;2022-11-20T03:12:46;101309.81;;;6.05
34125;BMP280;20110;53.120;5.786;2022-11-20T03:15:11;101306.13;;;6.17
34125;BMP280;20110;53.120;5.786;2022-11-20T03:17:37;101319.19;;;6.26
34125;BMP280;20110;53.120;5.786;2022-11-20T03:20:04;101318.47;;;6.25
34125;BMP280;20110;53.120;5.786;2022-11-20T03:22:30;101293.63;;;6.12
34125;BMP280;20110;53.120;5.786;2022-11-20T03:24:56;101305.09;;;6.29
34125;BMP280;20110;53.120;5.786;2022-11-20T03:27:22;101309.84;;;6.25
34125;BMP280;20110;53.120;5.786;2022-11-20T03:29:47;101314.66;;;6.26
34125;BMP280;20110;53.120;5.786;2022-11-20T03:32:13;101304.50;;;6.19
34125;BMP280;20110;53.120;5.786;2022-11-20T03:34:39;101302.78;;;6.37
34125;BMP280;20110;53.120;5.786;2022-11-20T03:37:04;101299.13;;;6.34
34125;BMP280;20110;53.120;5.786;2022-11-20T03:39:30;101275.69;;;6.16
34125;BMP280;20110;53.120;5.786;2022-11-20T03:41:56;101285.94;;;6.34
34125;BMP280;20110;53.120;5.786;2022-11-20T03:44:22;101227.16;;;5.87
34125;BMP280;20110;53.120;5.786;2022-11-20T03:46:48;101261.84;;;6.01
34125;BMP280;20110;53.120;5.786;2022-11-20T03:49:13;101186.13;;;5.46
34125;BMP280;20110;53.120;5.786;2022-11-20T03:51:39;101242.56;;;5.74
34125;BMP280;20110;53.120;5.786;2022-11-20T03:54:08;101248.22;;;5.67
34125;BMP280;20110;53.120;5.786;2022-11-20T03:56:38;101241.59;;;5.57
34125;BMP280;20110;53.120;5.786;2022-11-20T03:59:05;101265.56;;;5.59
34125;BMP280;20110;53.120;5.786;2022-11-20T04:01:35;101271.97;;;5.52
34125;BMP280;20110;53.120;5.786;2022-11-20T04:04:01;101243.59;;;5.27
34125;BMP280;20110;53.120;5.786;2022-11-20T04:06:33;101246.75;;;5.31
34125;BMP280;20110;53.120;5.786;2022-11-20T04:08:59;101250.38;;;5.33
34125;BMP280;20110;53.120;5.786;2022-11-20T04:11:28;101253.00;;;5.33
34125;BMP280;20110;53.120;5.786;2022-11-20T04:13:58;101253.56;;;5.38
34125;BMP280;20110;53.120;5.786;2022-11-20T04:16:26;101226.78;;;5.24
34125;BMP280;20110;53.120;5.786;2022-11-20T04:18:56;101224.59;;;5.23
34125;BMP280;20110;53.120;5.786;2022-11-20T04:21:23;101243.91;;;5.34
34125;BMP280;20110;53.120;5.786;2022-11-20T04:23:50;101214.28;;;5.19
34125;BMP280;20110;53.120;5.786;2022-11-20T04:26:19;101227.66;;;5.36
34125;BMP280;20110;53.120;5.786;2022-11-20T04:28:45;101172.78;;;4.99
34125;BMP280;20110;53.120;5.786;2022-11-20T04:31:17;101199.38;;;5.16
34125;BMP280;20110;53.120;5.786;2022-11-20T04:33:44;101213.88;;;5.26
34125;BMP280;20110;53.120;5.786;2022-11-20T04:36:22;101216.06;;;5.28
34125;BMP280;20110;53.120;5.786;2022-11-20T04:38:57;101213.16;;;5.26
34125;BMP280;20110;53.120;5.786;2022-11-20T04:41:29;101193.50;;;5.07
34125;BMP280;20110;53.120;5.786;2022-11-20T04:43:58;101215.91;;;5.17
34125;BMP280;20110;53.120;5.786;2022-11-20T04:46:27;101207.94;;;4.96
34125;BMP280;20110;53.120;5.786;2022-11-20T04:48:53;101190.94;;;4.83
34125;BMP280;20110;53.120;5.786;2022-11-20T04:51:18;101216.72;;;4.93
34125;BMP280;20110;53.120;5.786;2022-11-20T04:53:44;101224.44;;;4.82
34125;BMP280;20110;53.120;5.786;2022-11-20T04:56:12;101212.81;;;4.74
34125;BMP280;20110;53.120;5.786;2022-11-20T04:58:38;101226.19;;;4.61
34125;BMP280;20110;53.120;5.786;2022-11-20T05:01:11;101205.91;;;4.62
34125;BMP280;20110;53.120;5.786;2022-11-20T05:03:44;101199.44;;;4.48
34125;BMP280;20110;53.120;5.786;2022-11-20T05:06:13;101216.34;;;4.32
34125;BMP280;20110;53.120;5.786;2022-11-20T05:08:39;101211.94;;;3.91
34125;BMP280;20110;53.120;5.786;2022-11-20T05:11:08;101191.88;;;3.46
34125;BMP280;20110;53.120;5.786;2022-11-20T05:13:34;101192.09;;;3.33
34125;BMP280;20110;53.120;5.786;2022-11-20T05:16:10;101219.09;;;3.15
34125;BMP280;20110;53.120;5.786;2022-11-20T05:18:38;101205.16;;;2.81
34125;BMP280;20110;53.120;5.786;2022-11-20T05:21:04;101170.31;;;2.44
34125;BMP280;20110;53.120;5.786;2022-11-20T05:23:32;101201.66;;;2.57
34125;BMP280;20110;53.120;5.786;2022-11-20T05:25:59;101196.13;;;2.64
34125;BMP280;20110;53.120;5.786;2022-11-20T05:28:27;101186.06;;;2.44
34125;BMP280;20110;53.120;5.786;2022-11-20T05:30:54;101170.91;;;2.39
34125;BMP280;20110;53.120;5.786;2022-11-20T05:33:21;101161.34;;;2.36
34125;BMP280;20110;53.120;5.786;2022-11-20T05:35:47;101183.00;;;2.55
34125;BMP280;20110;53.120;5.786;2022-11-20T05:38:14;101156.34;;;2.75
34125;BMP280;20110;53.120;5.786;2022-11-20T05:40:40;101159.03;;;3.17
34125;BMP280;20110;53.120;5.786;2022-11-20T05:43:05;101151.09;;;3.35
34125;BMP280;20110;53.120;5.786;2022-11-20T05:45:31;101156.78;;;3.43
34125;BMP280;20110;53.120;5.786;2022-11-20T05:48:00;101172.03;;;3.54
34125;BMP280;20110;53.120;5.786;2022-11-20T05:50:27;101177.13;;;3.57
34125;BMP280;20110;53.120;5.786;2022-11-20T05:52:53;101179.75;;;3.57
34125;BMP280;20110;53.120;5.786;2022-11-20T05:55:19;101157.31;;;3.47
34125;BMP280;20110;53.120;5.786;2022-11-20T05:57:46;101180.66;;;3.45
34125;BMP280;20110;53.120;5.786;2022-11-20T06:00:13;101178.06;;;3.36
34125;BMP280;20110;53.120;5.786;2022-11-20T06:02:38;101182.06;;;3.13
34125;BMP280;20110;53.120;5.786;2022-11-20T06:05:05;101189.81;;;3.07
34125;BMP280;20110;53.120;5.786;2022-11-20T06:07:31;101185.59;;;3.01
34125;BMP280;20110;53.120;5.786;2022-11-20T06:09:56;101158.66;;;2.82
34125;BMP280;20110;53.120;5.786;2022-11-20T06:12:22;101172.50;;;3.10
34125;BMP280;20110;53.120;5.786;2022-11-20T06:14:48;101188.31;;;3.25
34125;BMP280;20110;53.120;5.786;2022-11-20T06:17:14;101172.75;;;3.21
34125;BMP280;20110;53.120;5.786;2022-11-20T06:19:39;101159.84;;;3.32
34125;BMP280;20110;53.120;5.786;2022-11-20T06:22:05;101143.06;;;3.30
34125;BMP280;20110;53.120;5.786;2022-11-20T06:24:31;101143.44;;;3.13
34125;BMP280;20110;53.120;5.786;2022-11-20T06:26:56;101153.50;;;3.15
34125;BMP280;20110;53.120;5.786;2022-11-20T06:29:22;101158.88;;;3.21
34125;BMP280;20110;53.120;5.786;2022-11-20T06:31:48;101150.88;;;3.15
34125;BMP280;20110;53.120;5.786;2022-11-20T06:34:14;101174.28;;;3.37
34125;BMP280;20110;53.120;5.786;2022-11-20T06:36:40;101169.59;;;3.41
34125;BMP280;20110;53.120;5.786;2022-11-20T06:39:05;101164.66;;;3.34
34125;BMP280;20110;53.120;5.786;2022-11-20T06:41:31;101146.00;;;3.32
34125;BMP280;20110;53.120;5.786;2022-11-20T06:43:57;101156.31;;;3.44
34125;BMP280;20110;53.120;5.786;2022-11-20T06:46:23;101168.97;;;3.46
34125;BMP280;20110;53.120;5.786;2022-11-20T06:48:49;101180.84;;;3.32
34125;BMP280;20110;53.120;5.786;2022-11-20T06:51:16;101160.38;;;3.03
34125;BMP280;20110;53.120;5.786;2022-11-20T06:53:42;101173.34;;;3.07
34125;BMP280;20110;53.120;5.786;2022-11-20T06:56:07;101166.16;;;3.26
34125;BMP280;20110;53.120;5.786;2022-11-20T06:58:35;101181.28;;;3.64
34125;BMP280;20110;53.120;5.786;2022-11-20T07:01:05;101143.38;;;3.65
34125;BMP280;20110;53.120;5.786;2022-11-20T07:03:31;101157.25;;;3.89
34125;BMP280;20110;53.120;5.786;2022-11-20T07:06:00;101155.16;;;3.93
34125;BMP280;20110;53.120;5.786;2022-11-20T07:08:26;101177.69;;;4.09
34125;BMP280;20110;53.120;5.786;2022-11-20T07:10:52;101179.44;;;4.12
34125;BMP280;20110;53.120;5.786;2022-11-20T07:13:18;101167.81;;;4.04
34125;BMP280;20110;53.120;5.786;2022-11-20T07:15:44;101179.97;;;4.16
34125;BMP280;20110;53.120;5.786;2022-11-20T07:18:10;101159.81;;;3.98
34125;BMP280;20110;53.120;5.786;2022-11-20T07:20:35;101156.03;;;4.14
34125;BMP280;20110;53.120;5.786;2022-11-20T07:23:01;101177.03;;;4.38
34125;BMP280;20110;53.120;5.786;2022-11-20T07:25:28;101168.81;;;4.45
34125;BMP280;20110;53.120;5.786;2022-11-20T07:27:59;101171.63;;;4.42
34125;BMP280;20110;53.120;5.786;2022-11-20T07:30:26;101087.50;;;3.88
34125;BMP280;20110;53.120;5.786;2022-11-20T07:32:53;101152.91;;;4.39
34125;BMP280;20110;53.120;5.786;2022-11-20T07:35:21;101156.03;;;4.53
34125;BMP280;20110;53.120;5.786;2022-11-20T07:37:47;101160.75;;;4.78
34125;BMP280;20110;53.120;5.786;2022-11-20T07:40:17;101129.91;;;4.64
34125;BMP280;20110;53.120;5.786;2022-11-20T07:42:51;101153.66;;;4.69
34125;BMP280;20110;53.120;5.786;2022-11-20T07:45:18;101133.63;;;4.57
34125;BMP280;20110;53.120;5.786;2022-11-20T07:47:44;101147.59;;;4.63
34125;BMP280;20110;53.120;5.786;2022-11-20T07:50:11;101167.56;;;4.70
34125;BMP280;20110;53.120;5.786;2022-11-20T07:52:37;101164.09;;;4.64
34125;BMP280;20110;53.120;5.786;2022-11-20T07:55:04;101157.22;;;4.52
34125;BMP280;20110;53.120;5.786;2022-11-20T07:57:30;101138.78;;;4.37
34125;BMP280;20110;53.120;5.786;2022-11-20T07:59:56;101141.13;;;4.35
34125;BMP280;20110;53.120;5.786;2022-11-20T08:02:22;101142.38;;;4.25
34125;BMP280;20110;53.120;5.786;2022-11-20T08:04:48;101130.28;;;4.03
34125;BMP280;20110;53.120;5.786;2022-11-20T08:07:13;101135.66;;;4.09
34125;BMP280;20110;53.120;5.786;2022-11-20T08:09:39;101131.78;;;4.19
34125;BMP280;20110;53.120;5.786;2022-11-20T08:12:05;101091.97;;;3.97
34125;BMP280;20110;53.120;5.786;2022-11-20T08:14:51;101135.09;;;4.44
34125;BMP280;20110;53.120;5.786;2022-11-20T08:17:17;101125.34;;;4.50
34125;BMP280;20110;53.120;5.786;2022-11-20T08:19:43;101137.34;;;4.65
34125;BMP280;20110;53.120;5.786;2022-11-20T08:22:08;101085.09;;;4.29
34125;BMP280;20110;53.120;5.786;2022-11-20T08:24:34;101125.09;;;4.62
34125;BMP280;20110;53.120;5.786;2022-11-20T08:27:00;101131.38;;;4.65
34125;BMP280;20110;53.120;5.786;2022-11-20T08:29:27;101132.16;;;4.71
34125;BMP280;20110;53.120;5.786;2022-11-20T08:31:54;101129.63;;;4.77
34125;BMP280;20110;53.120;5.786;2022-11-20T08:34:20;101138.63;;;4.85
34125;BMP280;20110;53.120;5.786;2022-11-20T08:36:46;101122.13;;;4.84
34125;BMP280;20110;53.120;5.786;2022-11-20T08:39:12;101127.09;;;4.97
34125;BMP280;20110;53.120;5.786;2022-11-20T08:41:38;101143.66;;;5.18
34125;BMP280;20110;53.120;5.786;2022-11-20T08:44:06;101137.53;;;5.26
34125;BMP280;20110;53.120;5.786;2022-11-20T08:46:39;101118.81;;;5.24
34125;BMP280;20110;53.120;5.786;2022-11-20T08:49:09;101147.72;;;5.54
34125;BMP280;20110;53.120;5.786;2022-11-20T08:51:37;101136.97;;;5.78
34125;BMP280;20110;53.120;5.786;2022-11-20T08:54:04;101134.63;;;6.06
34125;BMP280;20110;53.120;5.786;2022-11-20T08:56:31;101113.84;;;6.71
34125;BMP280;20110;53.120;5.786;2022-11-20T08:58:56;101147.06;;;7.25
34125;BMP280;20110;53.120;5.786;2022-11-20T09:01:25;101153.78;;;7.97
34125;BMP280;20110;53.120;5.786;2022-11-20T09:03:51;101122.53;;;8.29
34125;BMP280;20110;53.120;5.786;2022-11-20T09:06:18;101140.59;;;8.75
34125;BMP280;20110;53.120;5.786;2022-11-20T09:08:44;101137.34;;;9.05
34125;BMP280;20110;53.120;5.786;2022-11-20T09:11:10;101102.97;;;8.93
34125;BMP280;20110;53.120;5.786;2022-11-20T09:13:36;101125.56;;;9.17
34125;BMP280;20110;53.120;5.786;2022-11-20T09:16:08;101132.19;;;9.35
34125;BMP280;20110;53.120;5.786;2022-11-20T09:18:35;101149.97;;;9.45
34125;BMP280;20110;53.120;5.786;2022-11-20T09:21:10;101148.47;;;9.55
34125;BMP280;20110;53.120;5.786;2022-11-20T09:23:38;101138.34;;;9.95
34125;BMP280;20110;53.120;5.786;2022-11-20T09:26:09;101133.59;;;10.48
34125;BMP280;20110;53.120;5.786;2022-11-20T09:28:36;101126.75;;;10.77
34125;BMP280;20110;53.120;5.786;2022-11-20T09:31:09;101103.22;;;10.86
34125;BMP280;20110;53.120;5.786;2022-11-20T09:33:36;101129.69;;;10.73
34125;BMP280;20110;53.120;5.786;2022-11-20T09:36:02;101123.53;;;10.35
34125;BMP280;20110;53.120;5.786;2022-11-20T09:38:27;101111.28;;;10.32
34125;BMP280;20110;53.120;5.786;2022-11-20T09:41:06;101106.34;;;10.17
34125;BMP280;20110;53.120;5.786;2022-11-20T09:43:59;101098.31;;;9.98
34125;BMP280;20110;53.120;5.786;2022-11-20T09:46:52;101121.72;;;9.94
34125;BMP280;20110;53.120;5.786;2022-11-20T09:53:19;101121.75;;;9.89
34125;BMP280;20110;53.120;5.786;2022-11-20T09:55:48;101116.72;;;10.15
34125;BMP280;20110;53.120;5.786;2022-11-20T09:58:41;101116.09;;;10.33
34125;BMP280;20110;53.120;5.786;2022-11-20T10:01:20;101098.91;;;10.40
34125;BMP280;20110;53.120;5.786;2022-11-20T10:04:13;101098.50;;;10.30
34125;BMP280;20110;53.120;5.786;2022-11-20T10:09:35;101091.06;;;10.23
34125;BMP280;20110;53.120;5.786;2022-11-20T10:26:58;101084.41;;;10.17
34125;BMP280;20110;53.120;5.786;2022-11-20T10:29:38;101097.72;;;10.35
34125;BMP280;20110;53.120;5.786;2022-11-20T10:32:19;101100.09;;;10.63
34125;BMP280;20110;53.120;5.786;2022-11-20T10:35:24;101090.41;;;10.66
34125;BMP280;20110;53.120;5.786;2022-11-20T10:38:01;101087.13;;;10.79
34125;BMP280;20110;53.120;5.786;2022-11-20T10:40:38;101066.94;;;10.70
34125;BMP280;20110;53.120;5.786;2022-11-20T10:43:34;101058.53;;;10.66
34125;BMP280;20110;53.120;5.786;2022-11-20T10:46:39;101078.34;;;10.65
34125;BMP280;20110;53.120;5.786;2022-11-20T10:49:16;101079.41;;;10.56
34125;BMP280;20110;53.120;5.786;2022-11-20T11:00:22;101069.91;;;10.18
34125;BMP280;20110;53.120;5.786;2022-11-20T11:02:51;101065.41;;;10.07
34125;BMP280;20110;53.120;5.786;2022-11-20T11:06:03;101026.16;;;9.76
34125;BMP280;20110;53.120;5.786;2022-11-20T11:08:37;101033.31;;;9.81
34125;BMP280;20110;53.120;5.786;2022-11-20T11:11:28;101030.00;;;9.75
34125;BMP280;20110;53.120;5.786;2022-11-20T11:16:34;101021.03;;;9.83
34125;BMP280;20110;53.120;5.786;2022-11-20T11:19:12;101036.63;;;9.92
34125;BMP280;20110;53.120;5.786;2022-11-20T11:21:46;101045.84;;;10.10
34125;BMP280;20110;53.120;5.786;2022-11-20T11:24:30;101014.97;;;10.13
34125;BMP280;20110;53.120;5.786;2022-11-20T11:27:02;101015.84;;;10.64
34125;BMP280;20110;53.120;5.786;2022-11-20T11:29:30;101026.59;;;11.09
34125;BMP280;20110;53.120;5.786;2022-11-20T11:32:10;101032.72;;;11.81
34125;BMP280;20110;53.120;5.786;2022-11-20T11:34:36;101010.25;;;12.22
34125;BMP280;20110;53.120;5.786;2022-11-20T11:37:04;101009.28;;;12.45
34125;BMP280;20110;53.120;5.786;2022-11-20T11:39:32;100995.72;;;12.57
34125;BMP280;20110;53.120;5.786;2022-11-20T11:42:00;100976.31;;;12.35
34125;BMP280;20110;53.120;5.786;2022-11-20T11:53:16;101011.50;;;11.17
34125;BMP280;20110;53.120;5.786;2022-11-20T11:56:08;101006.09;;;10.91
34125;BMP280;20110;53.120;5.786;2022-11-20T11:58:47;100992.09;;;10.90
34125;BMP280;20110;53.120;5.786;2022-11-20T12:07:10;100994.91;;;10.79
34125;BMP280;20110;53.120;5.786;2022-11-20T12:09:47;100985.34;;;10.70
34125;BMP280;20110;53.120;5.786;2022-11-20T12:12:23;100970.19;;;10.65
34125;BMP280;20110;53.120;5.786;2022-11-20T12:14:54;100982.34;;;10.61
34125;BMP280;20110;53.120;5.786;2022-11-20T12:17:21;100950.44;;;10.42
34125;BMP280;20110;53.120;5.786;2022-11-20T12:19:47;100975.44;;;10.52
34125;BMP280;20110;53.120;5.786;2022-11-20T12:22:44;100967.81;;;10.43
34125;BMP280;20110;53.120;5.786;2022-11-20T12:25:25;100951.00;;;10.35
34125;BMP280;20110;53.120;5.786;2022-11-20T12:31:21;100947.59;;;10.40
34125;BMP280;20110;53.120;5.786;2022-11-20T12:34:31;100923.09;;;10.28
34125;BMP280;20110;53.120;5.786;2022-11-20T12:37:36;100937.75;;;10.54
34125;BMP280;20110;53.120;5.786;2022-11-20T12:40:37;100926.84;;;10.57
34125;BMP280;20110;53.120;5.786;2022-11-20T12:43:25;100928.13;;;10.51
34125;BMP280;20110;53.120;5.786;2022-11-20T12:55:25;100904.03;;;10.30
34125;BMP280;20110;53.120;5.786;2022-11-20T13:00:33;100897.44;;;10.37
34125;BMP280;20110;53.120;5.786;2022-11-20T13:03:28;100903.84;;;10.47
34125;BMP280;20110;53.120;5.786;2022-11-20T13:06:15;100900.69;;;10.48
34125;BMP280;20110;53.120;5.786;2022-11-20T13:08:53;100893.41;;;10.49
34125;BMP280;20110;53.120;5.786;2022-11-20T13:17:20;100855.41;;;10.41
34125;BMP280;20110;53.120;5.786;2022-11-20T13:19:55;100842.06;;;10.27
34125;BMP280;20110;53.120;5.786;2022-11-20T13:22:29;100859.78;;;10.38
34125;BMP280;20110;53.120;5.786;2022-11-20T13:24:55;100828.81;;;10.27
34125;BMP280;20110;53.120;5.786;2022-11-20T13:27:23;100844.13;;;10.34
34125;BMP280;20110;53.120;5.786;2022-11-20T13:30:17;100830.09;;;10.21
34125;BMP280;20110;53.120;5.786;2022-11-20T13:33:06;100826.13;;;10.09
34125;BMP280;20110;53.120;5.786;2022-11-20T13:35:36;100836.34;;;10.05
34125;BMP280;20110;53.120;5.786;2022-11-20T13:40:30;100821.09;;;9.86
34125;BMP280;20110;53.120;5.786;2022-11-20T13:43:38;100796.28;;;9.65
34125;BMP280;20110;53.120;5.786;2022-11-20T13:46:09;100814.91;;;9.78
34125;BMP280;20110;53.120;5.786;2022-11-20T13:48:44;100748.59;;;9.41
34125;BMP280;20110;53.120;5.786;2022-11-20T14:02:18;100786.41;;;9.65
34125;BMP280;20110;53.120;5.786;2022-11-20T14:04:48;100752.63;;;9.47
34125;BMP280;20110;53.120;5.786;2022-11-20T14:07:18;100782.31;;;9.64
34125;BMP280;20110;53.120;5.786;2022-11-20T14:09:56;100774.69;;;9.55
34125;BMP280;20110;53.120;5.786;2022-11-20T14:12:32;100743.66;;;9.31
34125;BMP280;20110;53.120;5.786;2022-11-20T14:14:58;100761.56;;;9.44
34125;BMP280;20110;53.120;5.786;2022-11-20T14:17:34;100780.34;;;9.46
34125;BMP280;20110;53.120;5.786;2022-11-20T14:20:05;100764.44;;;9.46
34125;BMP280;20110;53.120;5.786;2022-11-20T14:22:31;100723.28;;;9.21
34125;BMP280;20110;53.120;5.786;2022-11-20T14:27:41;100766.28;;;9.32
34125;BMP280;20110;53.120;5.786;2022-11-20T14:30:16;100761.97;;;9.29
34125;BMP280;20110;53.120;5.786;2022-11-20T14:32:45;100751.06;;;9.33
34125;BMP280;20110;53.120;5.786;2022-11-20T14:35:29;100759.81;;;9.28
34125;BMP280;20110;53.120;5.786;2022-11-20T14:37:56;100746.00;;;9.11
34125;BMP280;20110;53.120;5.786;2022-11-20T14:40:35;100747.25;;;8.85
34125;BMP280;20110;53.120;5.786;2022-11-20T14:43:16;100715.25;;;8.48
34125;BMP280;20110;53.120;5.786;2022-11-20T14:45:56;100731.63;;;8.46
34125;BMP280;20110;53.120;5.786;2022-11-20T14:48:37;100751.75;;;8.60
34125;BMP280;20110;53.120;5.786;2022-11-20T14:51:03;100710.09;;;8.31
34125;BMP280;20110;53.120;5.786;2022-11-20T14:53:29;100700.56;;;8.17
34125;BMP280;20110;53.120;5.786;2022-11-20T14:55:59;100742.22;;;8.46
34125;BMP280;20110;53.120;5.786;2022-11-20T14:58:32;100726.69;;;8.32
34125;BMP280;20110;53.120;5.786;2022-11-20T15:01:06;100723.78;;;8.35
34125;BMP280;20110;53.120;5.786;2022-11-20T15:03:36;100722.75;;;8.44
34125;BMP280;20110;53.120;5.786;2022-11-20T15:06:04;100720.31;;;8.46
34125;BMP280;20110;53.120;5.786;2022-11-20T15:08:31;100710.91;;;8.50
34125;BMP280;20110;53.120;5.786;2022-11-20T15:10:57;100655.91;;;8.08
34125;BMP280;20110;53.120;5.786;2022-11-20T15:13:37;100659.03;;;8.06
34125;BMP280;20110;53.120;5.786;2022-11-20T15:16:18;100689.19;;;8.27
34125;BMP280;20110;53.120;5.786;2022-11-20T15:18:45;100671.19;;;8.26
34125;BMP280;20110;53.120;5.786;2022-11-20T15:21:18;100695.59;;;8.38
34125;BMP280;20110;53.120;5.786;2022-11-20T15:23:45;100683.38;;;8.29
34125;BMP280;20110;53.120;5.786;2022-11-20T15:26:14;100679.38;;;8.22
34125;BMP280;20110;53.120;5.786;2022-11-20T15:28:45;100694.22;;;8.31
34125;BMP280;20110;53.120;5.786;2022-11-20T15:31:19;100695.59;;;8.38
34125;BMP280;20110;53.120;5.786;2022-11-20T15:33:45;100694.38;;;8.44
34125;BMP280;20110;53.120;5.786;2022-11-20T15:36:11;100669.22;;;8.32
34125;BMP280;20110;53.120;5.786;2022-11-20T15:38:38;100695.09;;;8.45
34125;BMP280;20110;53.120;5.786;2022-11-20T15:41:05;100668.78;;;8.22
34125;BMP280;20110;53.120;5.786;2022-11-20T15:43:31;100676.91;;;8.30
34125;BMP280;20110;53.120;5.786;2022-11-20T15:46:05;100683.66;;;8.31
34125;BMP280;20110;53.120;5.786;2022-11-20T15:48:54;100684.31;;;8.37
34125;BMP280;20110;53.120;5.786;2022-11-20T15:51:31;100674.97;;;8.36
34125;BMP280;20110;53.120;5.786;2022-11-20T15:53:59;100659.38;;;8.27
34125;BMP280;20110;53.120;5.786;2022-11-20T15:56:26;100687.88;;;8.40
34125;BMP280;20110;53.120;5.786;2022-11-20T15:58:51;100623.72;;;8.04